This is the latest recevied weather packets stored in our database for station/object DH1NAI-6. If no packets are shown the sender has not sent any weather packets the latest 10 day(s).
| Time | Temp. | Humidity | Pressure | Rain* | Wind** | Luminosity | Snow |
|---|---|---|---|---|---|---|---|
| 1787901557 | 18.89° C | 94% | 1009.7 hPa | 0 mm | - | 23 W/m² | - |
| 1787900948 | 17.78° C | 96% | 1009.9 hPa | 0 mm | - | 43 W/m² | - |
| 1787900341 | 17.78° C | 98% | 1009.8 hPa | 1.02 mm | - | 28 W/m² | - |
| 1787899732 | 17.22° C | 99% | 1009.9 hPa | 1.02 mm | - | 21 W/m² | - |
| 1787899125 | 17.22° C | 99% | 1010.6 hPa | 1.02 mm | - | 17 W/m² | - |
| 1787898516 | 17.22° C | 99% | 1012.3 hPa | 1.02 mm | - | 20 W/m² | - |
| 1787897909 | 17.22° C | 99% | 1012.5 hPa | 1.02 mm | - | 7 W/m² | - |
| 1787897300 | 17.22° C | 99% | 1012.5 hPa | 0 mm | - | 6 W/m² | - |
| 1787896676 | 17.22° C | 99% | 1012.8 hPa | 1.02 mm | - | 5 W/m² | - |
| 1787896068 | 17.22° C | 99% | 1012.1 hPa | 1.02 mm | - | 6 W/m² | - |
| 1787895444 | 17.22° C | 99% | 1011.3 hPa | 1.02 mm | - | 4 W/m² | - |
| 1787894837 | 17.22° C | 98% | 1011.1 hPa | 1.02 mm | - | 6 W/m² | - |
| 1787894228 | 17.78° C | 94% | 1010.8 hPa | 1.02 mm | - | 2 W/m² | - |
| 1787893621 | 18.33° C | 87% | 1011.4 hPa | 0 mm | - | 0 W/m² | - |
| 1787893012 | 18.89° C | 83% | 1010.4 hPa | 0 mm | - | 1 W/m² | - |
| 1787892405 | 18.33° C | 85% | 1010.4 hPa | 0 mm | - | 1 W/m² | - |
| 1787891792 | 18.33° C | 85% | 1010 hPa | 0 mm | - | 1 W/m² | - |
| 1787891189 | 18.89° C | 85% | 1010.1 hPa | 0 mm | - | 0 W/m² | - |
| 1787890580 | 18.33° C | 86% | 1009.8 hPa | 0 mm | - | 0 W/m² | - |
| 1787889956 | 17.78° C | 87% | 1010 hPa | 0 mm | - | 0 W/m² | - |
| 1787889348 | 17.22° C | 91% | 1010.1 hPa | 0 mm | - | 0 W/m² | - |
| 1787888724 | 17.22° C | 91% | 1010.5 hPa | 0 mm | - | 0 W/m² | - |
| 1787888117 | 18.33° C | 87% | 1010.8 hPa | 0 mm | - | 0 W/m² | - |
| 1787887508 | 18.33° C | 85% | 1010.7 hPa | 0 mm | - | 0 W/m² | - |
| 1787886901 | 19.44° C | 82% | 1011.6 hPa | 0 mm | - | 0 W/m² | - |
* Rain latest hour (hover to see other rain measurements)
** Current wind speed in m/s (hover to see current wind gust speed)